createdAt,value
2023-05-24T00:00:32.903Z,9.00
2023-05-24T00:03:21.850Z,9.20
2023-05-24T00:06:09.915Z,8.90
2023-05-24T00:08:57.244Z,8.90
2023-05-24T00:11:44.695Z,8.60
2023-05-24T00:14:32.460Z,9.00
2023-05-24T00:17:20.738Z,8.70
2023-05-24T00:20:12.566Z,8.70
2023-05-24T00:23:00.303Z,8.70
2023-05-24T00:25:48.027Z,8.60
2023-05-24T00:28:35.312Z,8.50
2023-05-24T00:31:23.318Z,8.50
2023-05-24T00:34:10.618Z,8.50
2023-05-24T00:37:00.687Z,8.50
2023-05-24T00:39:48.149Z,8.40
2023-05-24T00:42:35.606Z,8.40
2023-05-24T00:45:22.755Z,8.40
2023-05-24T00:48:11.055Z,8.30
2023-05-24T00:50:58.451Z,8.30
2023-05-24T00:53:48.340Z,8.20
2023-05-24T00:56:36.280Z,8.20
2023-05-24T00:59:24.221Z,8.20
2023-05-24T01:02:11.575Z,8.10
2023-05-24T01:05:00.064Z,8.10
2023-05-24T01:07:52.702Z,8.10
2023-05-24T01:10:46.743Z,8.00
2023-05-24T01:13:37.930Z,8.00
2023-05-24T01:16:27.037Z,7.90
2023-05-24T01:19:27.291Z,7.80
2023-05-24T01:22:29.867Z,7.80
2023-05-24T01:25:20.700Z,7.80
2023-05-24T01:28:09.545Z,7.70
2023-05-24T01:30:57.060Z,7.70
2023-05-24T01:33:44.702Z,7.60
2023-05-24T01:36:32.369Z,7.70
2023-05-24T01:39:20.097Z,7.70
2023-05-24T01:42:10.530Z,7.60
2023-05-24T01:45:03.618Z,7.90
2023-05-24T01:47:59.761Z,7.60
2023-05-24T01:50:49.779Z,7.50
2023-05-24T01:53:43.382Z,7.50
2023-05-24T01:56:32.135Z,7.40
2023-05-24T01:59:21.902Z,7.40
2023-05-24T02:02:10.589Z,7.40
2023-05-24T02:04:59.050Z,7.40
2023-05-24T02:07:47.284Z,7.40
2023-05-24T02:10:34.828Z,7.30
2023-05-24T02:13:22.384Z,7.30
2023-05-24T02:16:10.762Z,7.20
2023-05-24T02:19:00.358Z,7.20
2023-05-24T02:21:47.876Z,7.20
2023-05-24T02:24:36.697Z,7.20
2023-05-24T02:27:24.473Z,7.10
2023-05-24T02:30:12.520Z,7.10
2023-05-24T02:33:00.791Z,7.10
2023-05-24T02:35:49.809Z,7.10
2023-05-24T02:38:37.835Z,7.00
2023-05-24T02:41:25.196Z,7.00
2023-05-24T02:44:13.047Z,7.10
2023-05-24T02:47:00.531Z,7.00
2023-05-24T02:49:48.052Z,7.00
2023-05-24T02:52:37.132Z,7.10
2023-05-24T02:55:24.986Z,7.10
2023-05-24T02:58:13.705Z,7.10
2023-05-24T03:01:02.878Z,6.90
2023-05-24T03:03:50.326Z,6.90
2023-05-24T03:06:38.107Z,6.90
2023-05-24T03:09:27.634Z,6.90
2023-05-24T03:12:14.684Z,6.90
2023-05-24T03:15:02.160Z,6.90
2023-05-24T03:17:51.894Z,6.80
2023-05-24T03:20:42.241Z,6.90
2023-05-24T03:23:30.483Z,6.90
2023-05-24T03:26:20.724Z,6.80
2023-05-24T03:29:08.388Z,6.80
2023-05-24T03:31:59.968Z,6.70
2023-05-24T03:34:48.094Z,6.70
2023-05-24T03:37:36.260Z,6.70
2023-05-24T03:40:25.897Z,6.70
2023-05-24T03:43:24.797Z,6.80
2023-05-24T03:46:17.290Z,6.70
2023-05-24T03:49:04.687Z,6.70
2023-05-24T03:51:56.272Z,6.80
2023-05-24T03:54:43.746Z,6.70
2023-05-24T03:57:31.481Z,6.80
2023-05-24T04:00:21.265Z,6.80
2023-05-24T04:03:09.638Z,6.80
2023-05-24T04:05:57.765Z,6.80
2023-05-24T04:08:45.168Z,6.80
2023-05-24T04:11:32.570Z,6.80
2023-05-24T04:14:20.115Z,6.90
2023-05-24T04:17:09.193Z,6.90
2023-05-24T04:19:56.838Z,6.90
2023-05-24T04:22:45.882Z,6.90
2023-05-24T04:25:33.726Z,6.90
2023-05-24T04:28:22.294Z,6.90
2023-05-24T04:31:10.449Z,7.00
2023-05-24T04:33:59.787Z,6.90
2023-05-24T04:36:47.743Z,7.00
2023-05-24T04:39:35.305Z,7.10
2023-05-24T04:42:22.518Z,7.10
2023-05-24T04:45:10.982Z,7.10
2023-05-24T04:47:59.061Z,7.20
2023-05-24T04:50:48.748Z,7.20
2023-05-24T04:53:36.149Z,7.30
2023-05-24T04:56:23.485Z,7.40
2023-05-24T04:59:10.715Z,7.50
2023-05-24T05:01:58.158Z,7.60
2023-05-24T05:04:45.984Z,7.60
2023-05-24T05:07:35.763Z,7.80
2023-05-24T05:10:23.916Z,7.80
2023-05-24T05:13:11.512Z,7.90
2023-05-24T05:15:59.258Z,7.90
2023-05-24T05:18:47.026Z,8.00
2023-05-24T05:21:35.115Z,8.10
2023-05-24T05:24:24.587Z,8.10
2023-05-24T05:27:12.347Z,8.30
2023-05-24T05:29:59.652Z,8.40
2023-05-24T05:32:47.503Z,8.40
2023-05-24T05:35:36.123Z,8.40
2023-05-24T05:38:23.526Z,8.40
2023-05-24T05:41:12.865Z,8.40
2023-05-24T05:44:00.549Z,8.50
2023-05-24T05:46:48.164Z,8.50
2023-05-24T05:49:36.478Z,8.60
2023-05-24T05:52:23.640Z,8.70
2023-05-24T05:55:12.562Z,8.90
2023-05-24T05:58:01.209Z,9.00
2023-05-24T06:00:49.362Z,9.00
2023-05-24T06:03:37.581Z,9.10
2023-05-24T06:06:25.130Z,9.10
2023-05-24T06:09:12.778Z,9.30
2023-05-24T06:12:00.740Z,9.40
2023-05-24T06:14:52.473Z,9.60
2023-05-24T06:17:40.507Z,9.90
2023-05-24T06:20:27.984Z,10.10
2023-05-24T06:23:15.357Z,10.10
2023-05-24T06:26:03.410Z,10.10
2023-05-24T06:28:51.658Z,10.20
2023-05-24T06:31:40.504Z,10.20
2023-05-24T06:34:29.925Z,10.20
2023-05-24T06:37:17.141Z,10.20
2023-05-24T06:40:06.930Z,10.30
2023-05-24T06:42:54.037Z,10.30
2023-05-24T06:45:42.119Z,10.30
2023-05-24T06:48:32.404Z,10.40
2023-05-24T06:51:19.921Z,10.50
2023-05-24T06:54:07.376Z,10.50
2023-05-24T06:56:55.929Z,10.60
2023-05-24T06:59:43.791Z,10.70
2023-05-24T07:02:33.302Z,10.60
2023-05-24T07:05:22.471Z,10.80
2023-05-24T07:08:09.844Z,10.80
2023-05-24T07:10:57.226Z,10.90
2023-05-24T07:13:44.664Z,11.20
2023-05-24T07:16:32.163Z,11.10
2023-05-24T07:19:21.544Z,11.40
2023-05-24T07:22:10.439Z,11.50
2023-05-24T07:24:58.398Z,11.80
2023-05-24T07:27:46.030Z,11.90
2023-05-24T07:30:36.045Z,11.70
2023-05-24T07:33:23.867Z,11.60
2023-05-24T07:36:11.482Z,11.80
2023-05-24T07:39:00.667Z,12.00
2023-05-24T07:41:48.162Z,12.10
2023-05-24T07:44:36.244Z,12.20
2023-05-24T07:47:24.302Z,12.30
2023-05-24T07:50:12.602Z,12.00
2023-05-24T07:53:00.224Z,11.90
2023-05-24T07:55:49.406Z,11.90
2023-05-24T07:58:37.860Z,12.20
2023-05-24T08:01:25.440Z,12.20
2023-05-24T08:04:12.593Z,12.40
2023-05-24T08:07:01.884Z,12.60
2023-05-24T08:09:49.817Z,12.50
2023-05-24T08:12:38.916Z,12.30
2023-05-24T08:15:26.043Z,12.20
2023-05-24T08:18:14.371Z,12.30
2023-05-24T08:21:02.488Z,12.40
2023-05-24T08:23:50.838Z,12.40
2023-05-24T08:26:39.339Z,12.50
2023-05-24T08:29:30.329Z,13.30
2023-05-24T08:32:18.772Z,12.40
2023-05-24T08:35:19.591Z,12.40
2023-05-24T08:38:08.812Z,12.60
2023-05-24T08:40:57.432Z,12.50
2023-05-24T08:43:44.874Z,12.70
2023-05-24T08:46:34.434Z,13.00
2023-05-24T08:49:22.940Z,13.80
2023-05-24T08:52:11.808Z,12.50
2023-05-24T08:54:59.814Z,13.30
2023-05-24T08:57:48.327Z,13.50
2023-05-24T09:00:36.112Z,13.50
2023-05-24T09:03:25.293Z,13.70
2023-05-24T09:06:14.065Z,13.60
2023-05-24T09:09:04.451Z,13.70
2023-05-24T09:11:53.143Z,13.60
2023-05-24T09:14:42.097Z,13.70
2023-05-24T09:17:33.281Z,13.70
2023-05-24T09:20:23.239Z,13.90
2023-05-24T09:23:12.777Z,13.60
2023-05-24T09:26:08.096Z,13.90
2023-05-24T09:28:56.643Z,14.10
2023-05-24T09:31:44.249Z,14.40
2023-05-24T09:34:39.161Z,14.50
2023-05-24T09:37:32.630Z,13.80
2023-05-24T09:40:21.778Z,13.80
2023-05-24T09:43:10.183Z,14.00
2023-05-24T09:46:00.779Z,14.20
2023-05-24T09:48:58.617Z,14.40
2023-05-24T09:51:47.447Z,14.40
2023-05-24T09:54:37.790Z,14.70
2023-05-24T09:57:26.852Z,14.70
2023-05-24T10:00:16.475Z,14.50
2023-05-24T10:03:07.027Z,15.50
2023-05-24T10:05:55.383Z,14.60
2023-05-24T10:08:43.665Z,14.70
2023-05-24T10:11:33.372Z,14.90
2023-05-24T10:14:25.496Z,14.90
2023-05-24T10:17:13.306Z,14.80
2023-05-24T10:20:01.789Z,14.80
2023-05-24T10:22:53.226Z,14.70
2023-05-24T10:25:45.023Z,14.80
2023-05-24T10:28:37.134Z,15.10
2023-05-24T10:31:26.979Z,15.40
2023-05-24T10:34:15.661Z,15.30
2023-05-24T10:37:03.607Z,15.20
2023-05-24T10:39:52.161Z,15.20
2023-05-24T10:42:43.131Z,15.10
2023-05-24T10:45:37.904Z,15.30
2023-05-24T10:48:41.377Z,15.40
2023-05-24T10:51:34.020Z,15.50
2023-05-24T10:54:27.352Z,15.10
2023-05-24T10:57:15.240Z,15.50
2023-05-24T11:00:34.593Z,16.20
2023-05-24T11:03:25.651Z,16.10
2023-05-24T11:06:13.323Z,16.10
2023-05-24T11:09:01.488Z,16.10
2023-05-24T11:11:51.805Z,16.00
2023-05-24T11:14:40.992Z,16.10
2023-05-24T11:17:28.647Z,15.60
2023-05-24T11:20:21.184Z,15.60
2023-05-24T11:23:09.744Z,15.60
2023-05-24T11:25:58.649Z,15.90
2023-05-24T11:28:47.818Z,15.80
2023-05-24T11:31:43.173Z,15.90
2023-05-24T11:34:33.286Z,15.80
2023-05-24T11:37:34.942Z,15.70
2023-05-24T11:40:30.333Z,15.70
2023-05-24T11:43:18.803Z,15.90
2023-05-24T11:46:07.448Z,16.20
2023-05-24T11:48:57.792Z,16.30
2023-05-24T11:51:45.061Z,16.10
2023-05-24T11:54:35.178Z,16.30
2023-05-24T11:57:26.521Z,16.00
2023-05-24T12:00:17.485Z,15.70
2023-05-24T12:03:07.752Z,15.50
2023-05-24T12:06:01.168Z,13.10
2023-05-24T12:08:49.712Z,15.40
2023-05-24T12:11:52.452Z,15.30
2023-05-24T12:14:41.067Z,15.40
2023-05-24T12:17:29.234Z,15.40
2023-05-24T12:20:19.049Z,15.30
2023-05-24T12:23:07.183Z,15.30
2023-05-24T12:25:59.527Z,15.50
2023-05-24T12:28:49.402Z,15.60
2023-05-24T12:31:37.607Z,15.80
2023-05-24T12:34:25.607Z,16.10
2023-05-24T12:37:14.361Z,15.80
2023-05-24T12:40:05.339Z,15.80
2023-05-24T12:42:53.565Z,15.70
2023-05-24T12:45:43.045Z,15.60
2023-05-24T12:48:31.157Z,15.60
2023-05-24T12:51:18.465Z,15.50
2023-05-24T12:54:06.821Z,15.50
2023-05-24T12:56:56.767Z,15.70
2023-05-24T12:59:45.532Z,15.80
2023-05-24T13:02:36.103Z,16.10
2023-05-24T13:05:26.603Z,16.20
2023-05-24T13:08:14.800Z,16.70
2023-05-24T13:11:02.357Z,16.70
2023-05-24T13:13:49.850Z,16.60
2023-05-24T13:16:38.141Z,16.30
2023-05-24T13:19:26.944Z,16.00
2023-05-24T13:22:15.525Z,15.80
2023-05-24T13:25:03.331Z,15.80
2023-05-24T13:27:50.621Z,15.70
2023-05-24T13:30:38.848Z,15.60
2023-05-24T13:33:27.127Z,15.60
2023-05-24T13:36:17.364Z,15.60
2023-05-24T13:39:15.493Z,15.60
2023-05-24T13:42:04.047Z,15.50
2023-05-24T13:44:51.702Z,15.50
2023-05-24T13:47:41.005Z,15.50
2023-05-24T13:50:29.259Z,15.60
2023-05-24T13:53:18.138Z,15.70
2023-05-24T13:56:08.515Z,15.80
2023-05-24T13:58:56.552Z,15.80
2023-05-24T14:01:45.740Z,15.90
2023-05-24T14:04:33.416Z,15.90
2023-05-24T14:07:21.626Z,18.10
2023-05-24T14:10:11.598Z,15.80
2023-05-24T14:13:20.673Z,15.90
2023-05-24T14:16:08.845Z,15.90
2023-05-24T14:18:57.296Z,16.00
2023-05-24T14:21:48.216Z,16.00
2023-05-24T14:24:35.909Z,16.10
2023-05-24T14:27:25.827Z,16.00
2023-05-24T14:30:14.688Z,16.00
2023-05-24T14:33:02.643Z,16.00
2023-05-24T14:35:51.090Z,15.90
2023-05-24T14:38:38.577Z,15.90
2023-05-24T14:41:26.960Z,15.80
2023-05-24T14:44:15.983Z,15.90
2023-05-24T14:47:03.604Z,15.90
2023-05-24T14:49:51.925Z,16.00
2023-05-24T14:52:40.289Z,16.10
2023-05-24T14:55:29.271Z,16.20
2023-05-24T14:58:17.621Z,16.00
2023-05-24T15:01:06.977Z,15.90
2023-05-24T15:03:59.469Z,16.10
2023-05-24T15:06:46.835Z,16.10
2023-05-24T15:09:34.154Z,15.90
2023-05-24T15:12:24.125Z,16.00
2023-05-24T15:15:11.934Z,16.00
2023-05-24T15:18:05.026Z,15.80
2023-05-24T15:20:53.201Z,15.70
2023-05-24T15:23:41.719Z,15.80
2023-05-24T15:26:29.193Z,15.90
2023-05-24T15:29:17.699Z,16.10
2023-05-24T15:32:05.094Z,16.20
2023-05-24T15:34:57.938Z,16.10
2023-05-24T15:37:46.176Z,16.90
2023-05-24T15:40:33.429Z,15.90
2023-05-24T15:43:21.515Z,15.90
2023-05-24T15:46:08.890Z,16.00
2023-05-24T15:48:56.117Z,15.90
2023-05-24T15:54:36.099Z,16.30
2023-05-24T15:57:23.999Z,16.10
2023-05-24T16:00:12.541Z,16.00
2023-05-24T16:02:59.948Z,16.50
2023-05-24T16:05:48.860Z,16.60
2023-05-24T16:08:37.478Z,16.50
2023-05-24T16:11:26.050Z,16.70
2023-05-24T16:14:13.709Z,16.60
2023-05-24T16:17:04.685Z,16.60
2023-05-24T16:19:52.291Z,16.80
2023-05-24T16:22:47.937Z,17.10
2023-05-24T16:25:37.995Z,16.70
2023-05-24T16:28:25.734Z,16.90
2023-05-24T16:31:13.128Z,17.00
2023-05-24T16:34:01.033Z,17.20
2023-05-24T16:36:48.853Z,17.40
2023-05-24T16:39:37.879Z,17.30
2023-05-24T16:42:27.048Z,17.20
2023-05-24T16:45:15.134Z,17.20
2023-05-24T16:48:06.340Z,17.20
2023-05-24T16:50:55.559Z,16.90
2023-05-24T16:53:43.144Z,16.90
2023-05-24T16:56:31.425Z,16.60
2023-05-24T16:59:20.145Z,16.50
2023-05-24T17:02:08.068Z,16.40
2023-05-24T17:04:55.292Z,17.30
2023-05-24T17:07:43.295Z,16.20
2023-05-24T17:10:30.858Z,16.20
2023-05-24T17:13:18.410Z,16.30
2023-05-24T17:16:08.097Z,16.40
2023-05-24T17:18:55.803Z,16.10
2023-05-24T17:21:43.260Z,16.50
2023-05-24T17:24:30.645Z,16.70
2023-05-24T17:27:22.065Z,16.80
2023-05-24T17:30:11.281Z,16.80
2023-05-24T17:33:00.017Z,16.90
2023-05-24T17:35:48.222Z,17.00
2023-05-24T17:38:37.894Z,17.20
2023-05-24T17:41:26.078Z,17.00
2023-05-24T17:44:13.606Z,17.20
2023-05-24T17:47:02.151Z,17.10
2023-05-24T17:49:51.200Z,16.90
2023-05-24T17:52:38.745Z,16.90
2023-05-24T17:55:26.414Z,16.90
2023-05-24T17:58:14.398Z,17.00
2023-05-24T18:01:03.184Z,16.70
2023-05-24T18:03:51.026Z,16.70
2023-05-24T18:06:39.905Z,16.80
2023-05-24T18:09:27.588Z,16.90
2023-05-24T18:12:15.249Z,16.90
2023-05-24T18:15:02.615Z,16.60
2023-05-24T18:17:53.517Z,16.50
2023-05-24T18:20:40.960Z,16.40
2023-05-24T18:29:04.868Z,16.30
2023-05-24T18:31:52.592Z,16.30
2023-05-24T18:37:28.937Z,16.20
2023-05-24T18:40:17.043Z,16.10
2023-05-24T18:43:05.691Z,16.20
2023-05-24T18:45:55.735Z,16.10
2023-05-24T18:48:43.155Z,16.00
2023-05-24T18:51:30.692Z,16.40
2023-05-24T18:54:20.010Z,16.00
2023-05-24T18:57:09.642Z,15.90
2023-05-24T18:59:57.470Z,15.80
2023-05-24T19:02:46.549Z,15.80
2023-05-24T19:05:35.260Z,15.70
2023-05-24T19:08:22.666Z,15.60
2023-05-24T19:11:11.477Z,15.50
2023-05-24T19:13:59.109Z,15.40
2023-05-24T19:16:47.152Z,15.30
2023-05-24T19:19:36.571Z,15.20
2023-05-24T19:22:26.190Z,15.10
2023-05-24T19:25:14.086Z,15.00
2023-05-24T19:28:01.569Z,14.90
2023-05-24T19:30:49.396Z,14.90
2023-05-24T19:33:42.686Z,14.80
2023-05-24T19:36:37.661Z,14.80
2023-05-24T19:39:25.384Z,14.70
2023-05-24T19:42:13.020Z,14.60
2023-05-24T19:45:01.826Z,14.60
2023-05-24T19:47:49.995Z,14.50
2023-05-24T19:50:39.486Z,14.50
2023-05-24T19:53:28.726Z,14.50
2023-05-24T19:56:16.790Z,14.60
2023-05-24T19:59:04.313Z,14.30
2023-05-24T20:01:52.135Z,14.30
2023-05-24T20:04:41.974Z,14.20
2023-05-24T20:07:29.473Z,14.10
2023-05-24T20:10:18.263Z,14.00
2023-05-24T20:13:05.762Z,13.90
2023-05-24T20:15:55.935Z,13.90
2023-05-24T20:18:48.730Z,13.80
2023-05-24T20:21:36.770Z,13.70
2023-05-24T20:24:24.391Z,13.60
2023-05-24T20:27:13.471Z,13.80
2023-05-24T20:30:01.362Z,13.50
2023-05-24T20:32:49.103Z,13.50
2023-05-24T20:35:37.101Z,13.40
2023-05-24T20:38:24.597Z,13.40
2023-05-24T20:41:12.511Z,13.30
2023-05-24T20:44:02.210Z,13.20
2023-05-24T20:46:53.324Z,13.30
2023-05-24T20:49:41.365Z,13.00
2023-05-24T20:52:29.379Z,13.00
2023-05-24T20:55:18.892Z,13.00
2023-05-24T20:58:06.324Z,12.90
2023-05-24T21:00:55.004Z,12.90
2023-05-24T21:03:42.526Z,12.70
2023-05-24T21:06:33.160Z,12.70
2023-05-24T21:09:22.206Z,12.70
2023-05-24T21:12:10.259Z,12.70
2023-05-24T21:14:57.900Z,12.60
2023-05-24T21:17:46.833Z,12.50
2023-05-24T21:20:34.801Z,12.50
2023-05-24T21:23:23.002Z,12.50
2023-05-24T21:26:11.334Z,12.40
2023-05-24T21:28:59.186Z,12.40
2023-05-24T21:31:47.943Z,12.40
2023-05-24T21:34:37.226Z,12.40
2023-05-24T21:37:25.267Z,12.30
2023-05-24T21:40:13.034Z,12.40
2023-05-24T21:43:00.308Z,12.30
2023-05-24T21:45:48.025Z,12.20
2023-05-24T21:48:35.924Z,12.20
2023-05-24T21:51:25.457Z,12.20
2023-05-24T21:54:13.103Z,12.10
2023-05-24T21:57:01.601Z,12.10
2023-05-24T21:59:49.534Z,12.00
2023-05-24T22:02:37.850Z,12.00
2023-05-24T22:05:27.618Z,12.00
2023-05-24T22:08:16.921Z,11.90
2023-05-24T22:11:05.171Z,11.80
2023-05-24T22:13:52.556Z,11.60
2023-05-24T22:16:41.345Z,11.70
2023-05-24T22:19:40.037Z,12.30
2023-05-24T22:22:28.606Z,11.50
2023-05-24T22:25:20.797Z,11.40
2023-05-24T22:28:09.868Z,11.30
2023-05-24T22:30:57.536Z,11.30
2023-05-24T22:33:45.054Z,11.20
2023-05-24T22:36:33.743Z,11.20
2023-05-24T22:39:22.100Z,11.20
2023-05-24T22:42:11.567Z,11.20
2023-05-24T22:44:59.400Z,11.20
2023-05-24T22:47:49.800Z,11.20
2023-05-24T22:50:38.647Z,13.20
2023-05-24T22:53:26.335Z,11.20
2023-05-24T22:56:18.007Z,11.20
2023-05-24T22:59:07.103Z,11.20
2023-05-24T23:01:55.063Z,11.10
2023-05-24T23:04:47.406Z,11.00
2023-05-24T23:07:37.565Z,11.00
2023-05-24T23:10:24.849Z,10.90
2023-05-24T23:13:13.136Z,10.90
2023-05-24T23:16:02.525Z,10.80
2023-05-24T23:18:50.809Z,10.70
2023-05-24T23:21:42.213Z,10.70
2023-05-24T23:24:31.362Z,10.60
2023-05-24T23:27:19.202Z,10.60
2023-05-24T23:30:07.177Z,10.50
2023-05-24T23:32:56.860Z,10.50
2023-05-24T23:35:45.474Z,10.40
2023-05-24T23:38:34.032Z,10.40
2023-05-24T23:41:22.072Z,10.30
2023-05-24T23:44:09.875Z,10.70
2023-05-24T23:46:58.550Z,11.00
2023-05-24T23:49:47.992Z,10.30
2023-05-24T23:52:36.139Z,10.30
2023-05-24T23:55:24.067Z,10.30
2023-05-24T23:58:11.853Z,10.20
